createdAt,value
2022-11-21T00:01:19.426Z,4.80
2022-11-21T00:03:47.388Z,4.80
2022-11-21T00:06:15.823Z,4.80
2022-11-21T00:08:44.179Z,4.80
2022-11-21T00:11:12.273Z,4.80
2022-11-21T00:13:41.647Z,4.90
2022-11-21T00:16:12.015Z,4.90
2022-11-21T00:18:40.053Z,4.90
2022-11-21T00:21:08.799Z,4.90
2022-11-21T00:23:36.727Z,5.00
2022-11-21T00:26:07.876Z,4.90
2022-11-21T00:28:36.124Z,4.90
2022-11-21T00:31:06.697Z,4.90
2022-11-21T00:33:36.687Z,4.90
2022-11-21T00:36:08.306Z,4.90
2022-11-21T00:38:36.762Z,4.90
2022-11-21T00:41:04.766Z,5.00
2022-11-21T00:43:32.914Z,5.00
2022-11-21T00:46:02.821Z,5.00
2022-11-21T00:48:33.134Z,5.00
2022-11-21T00:51:01.478Z,5.00
2022-11-21T00:53:29.957Z,4.90
2022-11-21T00:55:58.306Z,4.90
2022-11-21T00:58:26.471Z,4.90
2022-11-21T01:00:54.580Z,5.00
2022-11-21T01:03:22.496Z,4.90
2022-11-21T01:05:51.716Z,4.90
2022-11-21T01:08:19.577Z,5.00
2022-11-21T01:10:47.464Z,4.90
2022-11-21T01:13:15.367Z,5.00
2022-11-21T01:15:43.262Z,5.00
2022-11-21T01:18:11.193Z,5.00
2022-11-21T01:20:41.063Z,4.90
2022-11-21T01:23:10.310Z,5.00
2022-11-21T01:25:38.246Z,4.90
2022-11-21T01:28:06.259Z,5.00
2022-11-21T01:30:34.188Z,5.00
2022-11-21T01:33:02.091Z,5.00
2022-11-21T01:35:30.030Z,5.00
2022-11-21T01:37:57.916Z,5.00
2022-11-21T01:40:27.287Z,5.00
2022-11-21T01:42:59.449Z,5.00
2022-11-21T01:45:56.387Z,5.00
2022-11-21T01:48:28.611Z,5.00
2022-11-21T01:50:59.741Z,5.00
2022-11-21T01:53:27.780Z,5.00
2022-11-21T01:55:57.147Z,5.00
2022-11-21T01:58:26.330Z,5.00
2022-11-21T02:00:54.830Z,5.00
2022-11-21T02:03:27.509Z,5.00
2022-11-21T02:05:57.156Z,5.00
2022-11-21T02:08:27.376Z,5.00
2022-11-21T02:11:05.072Z,5.10
2022-11-21T02:13:33.023Z,5.10
2022-11-21T02:16:01.276Z,5.10
2022-11-21T02:18:29.178Z,5.10
2022-11-21T02:21:04.088Z,5.10
2022-11-21T02:23:40.962Z,5.10
2022-11-21T02:26:11.241Z,5.10
2022-11-21T02:28:39.217Z,5.10
2022-11-21T02:31:07.137Z,5.10
2022-11-21T02:33:35.246Z,5.10
2022-11-21T02:36:03.608Z,5.10
2022-11-21T02:38:34.428Z,5.10
2022-11-21T02:41:09.110Z,5.20
2022-11-21T02:43:43.537Z,5.20
2022-11-21T02:46:11.502Z,5.10
2022-11-21T02:48:39.836Z,5.10
2022-11-21T02:51:08.202Z,5.20
2022-11-21T02:53:36.147Z,5.20
2022-11-21T02:56:04.169Z,5.10
2022-11-21T02:58:32.218Z,5.10
2022-11-21T03:01:01.518Z,5.10
2022-11-21T03:03:29.431Z,5.10
2022-11-21T03:05:57.758Z,5.10
2022-11-21T03:08:25.648Z,5.10
2022-11-21T03:10:53.552Z,5.10
2022-11-21T03:13:21.452Z,5.10
2022-11-21T03:15:49.448Z,5.10
2022-11-21T03:18:18.700Z,5.10
2022-11-21T03:20:46.566Z,5.10
2022-11-21T03:23:14.437Z,5.10
2022-11-21T03:25:42.325Z,5.10
2022-11-21T03:28:10.185Z,5.10
2022-11-21T03:30:38.098Z,5.10
2022-11-21T03:33:06.014Z,5.10
2022-11-21T03:35:35.240Z,5.10
2022-11-21T03:38:03.094Z,5.10
2022-11-21T03:40:30.997Z,5.10
2022-11-21T03:42:58.847Z,5.10
2022-11-21T03:45:26.790Z,5.10
2022-11-21T03:47:54.632Z,5.10
2022-11-21T03:50:22.519Z,5.10
2022-11-21T03:52:51.733Z,5.10
2022-11-21T03:55:19.606Z,5.10
2022-11-21T03:57:47.548Z,5.10
2022-11-21T04:00:16.907Z,5.10
2022-11-21T04:02:44.781Z,5.00
2022-11-21T04:05:12.680Z,5.00
2022-11-21T04:07:40.684Z,5.00
2022-11-21T04:10:11.018Z,5.00
2022-11-21T04:12:39.022Z,5.00
2022-11-21T04:15:13.228Z,5.00
2022-11-21T04:17:41.720Z,5.00
2022-11-21T04:20:10.821Z,5.00
2022-11-21T04:22:38.773Z,5.00
2022-11-21T04:25:07.685Z,5.00
2022-11-21T04:27:37.020Z,5.00
2022-11-21T04:30:05.677Z,5.00
2022-11-21T04:32:33.655Z,5.00
2022-11-21T04:35:01.545Z,5.00
2022-11-21T04:37:29.418Z,5.00
2022-11-21T04:39:57.358Z,5.00
2022-11-21T04:42:25.298Z,5.00
2022-11-21T04:44:54.606Z,5.00
2022-11-21T04:47:22.571Z,5.00
2022-11-21T04:49:50.511Z,5.00
2022-11-21T04:52:18.426Z,5.00
2022-11-21T04:54:46.733Z,5.00
2022-11-21T04:57:14.913Z,5.00
2022-11-21T04:59:42.816Z,5.00
2022-11-21T05:02:12.045Z,4.90
2022-11-21T05:04:40.240Z,5.00
2022-11-21T05:07:08.416Z,4.90
2022-11-21T05:09:36.345Z,4.90
2022-11-21T05:12:33.343Z,4.90
2022-11-21T05:15:01.243Z,5.00
2022-11-21T05:17:30.859Z,4.90
2022-11-21T05:19:58.802Z,4.90
2022-11-21T05:22:26.724Z,4.90
2022-11-21T05:24:54.621Z,4.90
2022-11-21T05:27:22.597Z,4.90
2022-11-21T05:29:50.472Z,4.90
2022-11-21T05:32:18.356Z,4.90
2022-11-21T05:34:47.600Z,4.80
2022-11-21T05:37:15.500Z,4.80
2022-11-21T05:39:43.397Z,4.80
2022-11-21T05:42:11.348Z,4.80
2022-11-21T05:44:38.306Z,4.80
2022-11-21T05:47:06.208Z,4.80
2022-11-21T05:49:34.067Z,4.80
2022-11-21T05:52:03.299Z,4.80
2022-11-21T05:54:31.296Z,4.80
2022-11-21T05:56:59.170Z,4.80
2022-11-21T05:59:27.082Z,4.80
2022-11-21T06:02:12.300Z,4.80
2022-11-21T06:04:40.222Z,4.80
2022-11-21T06:07:09.519Z,4.80
2022-11-21T06:09:37.472Z,4.80
2022-11-21T06:12:05.567Z,4.80
2022-11-21T06:14:33.449Z,4.80
2022-11-21T06:17:01.335Z,4.80
2022-11-21T06:19:29.211Z,4.80
2022-11-21T06:21:57.184Z,4.80
2022-11-21T06:24:26.634Z,4.80
2022-11-21T06:26:54.990Z,4.80
2022-11-21T06:29:23.170Z,4.80
2022-11-21T06:31:51.084Z,4.80
2022-11-21T06:34:19.215Z,4.80
2022-11-21T06:36:47.134Z,4.80
2022-11-21T06:39:15.122Z,4.80
2022-11-21T06:41:50.959Z,4.80
2022-11-21T06:44:19.167Z,4.80
2022-11-21T06:46:51.226Z,4.80
2022-11-21T06:49:19.872Z,4.80
2022-11-21T06:51:47.760Z,4.90
2022-11-21T06:54:28.431Z,4.90
2022-11-21T06:56:58.955Z,4.90
2022-11-21T06:59:26.822Z,4.80
2022-11-21T07:01:54.702Z,4.80
2022-11-21T07:04:22.658Z,4.80
2022-11-21T07:06:50.542Z,4.80
2022-11-21T07:09:32.728Z,4.80
2022-11-21T07:12:17.276Z,4.80
2022-11-21T07:14:45.265Z,4.80
2022-11-21T07:17:13.501Z,4.80
2022-11-21T07:19:41.774Z,4.80
2022-11-21T07:22:10.162Z,4.90
2022-11-21T07:24:38.094Z,4.80
2022-11-21T07:27:07.353Z,4.80
2022-11-21T07:29:35.217Z,4.90
2022-11-21T07:32:03.132Z,4.80
2022-11-21T07:34:31.012Z,4.80
2022-11-21T07:36:58.926Z,4.90
2022-11-21T07:39:27.046Z,4.90
2022-11-21T07:41:55.118Z,4.90
2022-11-21T07:44:24.391Z,4.90
2022-11-21T07:46:55.575Z,4.90
2022-11-21T07:49:23.494Z,4.90
2022-11-21T07:51:51.627Z,4.90
2022-11-21T07:54:19.518Z,4.90
2022-11-21T07:56:47.405Z,4.90
2022-11-21T07:59:15.325Z,4.90
2022-11-21T08:01:45.734Z,5.00
2022-11-21T08:04:13.818Z,5.00
2022-11-21T08:06:41.691Z,5.00
2022-11-21T08:09:09.584Z,4.90
2022-11-21T08:11:38.205Z,5.00
2022-11-21T08:14:06.140Z,5.00
2022-11-21T08:16:34.003Z,5.00
2022-11-21T08:19:03.523Z,5.00
2022-11-21T08:21:31.427Z,5.10
2022-11-21T08:23:59.386Z,5.10
2022-11-21T08:26:27.288Z,5.10
2022-11-21T08:28:59.804Z,5.10
2022-11-21T08:31:28.040Z,5.10
2022-11-21T08:33:57.876Z,5.20
2022-11-21T08:36:27.112Z,5.10
2022-11-21T08:38:54.999Z,5.20
2022-11-21T08:41:40.324Z,5.10
2022-11-21T08:44:13.690Z,5.10
2022-11-21T08:46:42.382Z,5.10
2022-11-21T08:49:10.392Z,5.20
2022-11-21T08:51:39.691Z,5.10
2022-11-21T08:54:08.243Z,5.20
2022-11-21T08:56:36.093Z,5.20
2022-11-21T08:59:04.001Z,5.20
2022-11-21T09:01:31.895Z,5.20
2022-11-21T09:03:59.814Z,5.30
2022-11-21T09:06:27.713Z,5.40
2022-11-21T09:08:56.998Z,5.50
2022-11-21T09:11:25.522Z,5.50
2022-11-21T09:14:07.809Z,5.50
2022-11-21T09:16:52.277Z,5.60
2022-11-21T09:19:21.039Z,5.60
2022-11-21T09:21:50.469Z,5.60
2022-11-21T09:24:20.095Z,5.60
2022-11-21T09:26:48.000Z,5.60
2022-11-21T09:29:16.376Z,5.60
2022-11-21T09:31:44.544Z,5.70
2022-11-21T09:34:12.722Z,5.70
2022-11-21T09:36:40.660Z,5.80
2022-11-21T09:39:08.596Z,5.90
2022-11-21T09:41:55.551Z,6.00
2022-11-21T09:44:50.366Z,6.00
2022-11-21T09:47:24.893Z,6.10
2022-11-21T09:49:57.713Z,6.10
2022-11-21T09:52:36.118Z,6.10
2022-11-21T09:55:07.614Z,6.10
2022-11-21T09:57:37.311Z,6.20
2022-11-21T10:00:15.415Z,6.10
2022-11-21T10:02:43.341Z,6.10
2022-11-21T10:05:14.566Z,6.10
2022-11-21T10:07:45.047Z,6.20
2022-11-21T10:10:32.217Z,6.20
2022-11-21T10:13:14.923Z,6.10
2022-11-21T10:15:55.420Z,6.20
2022-11-21T10:18:49.608Z,6.10
2022-11-21T10:21:35.093Z,6.20
2022-11-21T10:24:17.810Z,6.20
2022-11-21T10:26:52.761Z,6.10
2022-11-21T10:29:27.328Z,6.20
2022-11-21T10:31:58.292Z,6.20
2022-11-21T10:34:31.582Z,6.20
2022-11-21T10:37:07.718Z,6.20
2022-11-21T10:39:44.506Z,6.20
2022-11-21T10:42:24.213Z,6.20
2022-11-21T10:45:11.563Z,6.20
2022-11-21T10:47:39.908Z,6.20
2022-11-21T10:50:20.886Z,6.20
2022-11-21T10:52:50.722Z,6.20
2022-11-21T10:55:19.342Z,6.20
2022-11-21T10:57:48.939Z,6.20
2022-11-21T11:00:22.435Z,6.30
2022-11-21T11:03:04.790Z,6.40
2022-11-21T11:05:34.470Z,6.50
2022-11-21T11:08:10.112Z,6.50
2022-11-21T11:10:39.965Z,6.50
2022-11-21T11:13:49.895Z,6.60
2022-11-21T11:16:22.618Z,6.60
2022-11-21T11:18:58.725Z,6.60
2022-11-21T11:21:28.860Z,6.60
2022-11-21T11:24:21.243Z,6.70
2022-11-21T11:26:57.357Z,6.70
2022-11-21T11:29:27.693Z,6.70
2022-11-21T11:32:01.328Z,6.70
2022-11-21T11:34:39.863Z,6.70
2022-11-21T11:37:14.343Z,6.70
2022-11-21T11:39:50.921Z,6.70
2022-11-21T11:43:09.954Z,6.70
2022-11-21T11:46:14.437Z,6.70
2022-11-21T11:49:11.360Z,6.70
2022-11-21T11:51:39.446Z,6.70
2022-11-21T11:54:14.208Z,6.70
2022-11-21T11:56:44.442Z,6.70
2022-11-21T11:59:18.726Z,6.60
2022-11-21T12:01:51.282Z,6.70
2022-11-21T12:04:22.432Z,6.70
2022-11-21T12:09:49.792Z,6.70
2022-11-21T12:12:29.229Z,6.60
2022-11-21T12:15:23.755Z,6.60
2022-11-21T12:18:08.509Z,6.60
2022-11-21T12:20:47.154Z,6.60
2022-11-21T12:23:16.017Z,6.50
2022-11-21T12:25:53.848Z,6.50
2022-11-21T12:28:28.001Z,6.60
2022-11-21T12:31:05.737Z,6.70
2022-11-21T12:33:37.914Z,7.20
2022-11-21T12:36:23.996Z,7.60
2022-11-21T12:39:05.846Z,7.90
2022-11-21T12:41:55.863Z,8.10
2022-11-21T12:44:42.695Z,8.10
2022-11-21T12:47:26.541Z,8.00
2022-11-21T12:50:21.537Z,7.80
2022-11-21T12:53:14.598Z,7.70
2022-11-21T12:55:43.361Z,7.50
2022-11-21T12:58:22.034Z,7.30
2022-11-21T13:01:18.128Z,7.30
2022-11-21T13:04:00.762Z,7.10
2022-11-21T13:06:30.127Z,7.10
2022-11-21T13:09:02.433Z,7.00
2022-11-21T13:11:59.718Z,6.90
2022-11-21T13:14:43.296Z,6.90
2022-11-21T13:17:30.313Z,7.00
2022-11-21T13:20:06.148Z,7.20
2022-11-21T13:22:52.008Z,7.30
2022-11-21T13:25:47.299Z,7.30
2022-11-21T13:28:37.664Z,7.40
2022-11-21T13:31:30.437Z,7.50
2022-11-21T13:33:58.763Z,7.50
2022-11-21T13:36:45.476Z,7.40
2022-11-21T13:39:31.174Z,7.20
2022-11-21T13:42:39.036Z,7.10
2022-11-21T13:45:38.659Z,6.90
2022-11-21T13:48:18.424Z,6.80
2022-11-21T13:51:02.578Z,6.80
2022-11-21T13:53:50.087Z,6.70
2022-11-21T13:56:32.052Z,6.60
2022-11-21T13:59:16.242Z,6.60
2022-11-21T14:02:08.438Z,6.50
2022-11-21T14:05:00.269Z,6.50
2022-11-21T14:07:32.033Z,6.50
2022-11-21T14:10:01.643Z,6.50
2022-11-21T14:12:36.154Z,6.50
2022-11-21T14:15:26.109Z,6.50
2022-11-21T14:17:56.901Z,6.40
2022-11-21T14:20:26.412Z,6.40
2022-11-21T14:22:57.691Z,6.30
2022-11-21T14:25:33.931Z,6.30
2022-11-21T14:28:04.306Z,6.30
2022-11-21T14:30:39.414Z,6.30
2022-11-21T14:33:24.194Z,6.30
2022-11-21T14:35:54.735Z,6.20
2022-11-21T14:38:23.805Z,6.20
2022-11-21T14:40:52.346Z,6.20
2022-11-21T14:43:30.672Z,6.10
2022-11-21T14:46:00.116Z,6.10
2022-11-21T14:48:28.792Z,6.10
2022-11-21T14:50:59.070Z,6.10
2022-11-21T14:53:27.317Z,6.10
2022-11-21T14:56:01.099Z,6.00
2022-11-21T14:58:29.475Z,6.00
2022-11-21T15:01:07.085Z,6.00
2022-11-21T15:03:35.627Z,5.90
2022-11-21T15:06:07.834Z,5.90
2022-11-21T15:09:29.024Z,5.90
2022-11-21T15:11:31.004Z,5.80
2022-11-21T15:14:15.334Z,5.80
2022-11-21T15:16:47.337Z,5.70
2022-11-21T15:19:21.620Z,5.60
2022-11-21T15:21:51.382Z,5.60
2022-11-21T15:24:30.071Z,5.50
2022-11-21T15:26:58.385Z,5.40
2022-11-21T15:29:27.001Z,5.30
2022-11-21T15:32:15.834Z,5.20
2022-11-21T15:34:44.333Z,5.10
2022-11-21T15:37:16.335Z,5.00
2022-11-21T15:39:45.862Z,4.90
2022-11-21T15:42:38.853Z,4.80
2022-11-21T15:45:25.359Z,4.80
2022-11-21T15:47:55.886Z,4.70
2022-11-21T15:50:24.805Z,4.70
2022-11-21T15:52:53.609Z,4.60
2022-11-21T15:55:23.372Z,4.60
2022-11-21T15:57:51.243Z,4.60
2022-11-21T16:00:19.538Z,4.50
2022-11-21T16:02:47.581Z,4.50
2022-11-21T16:05:17.340Z,4.40
2022-11-21T16:07:45.356Z,4.30
2022-11-21T16:10:19.928Z,4.30
2022-11-21T16:12:52.118Z,4.20
2022-11-21T16:15:20.011Z,4.10
2022-11-21T16:17:48.054Z,4.00
2022-11-21T16:20:17.423Z,4.00
2022-11-21T16:22:47.677Z,3.90
2022-11-21T16:25:16.391Z,3.80
2022-11-21T16:27:44.397Z,3.80
2022-11-21T16:30:12.646Z,3.70
2022-11-21T16:32:40.543Z,3.60
2022-11-21T16:35:09.157Z,3.60
2022-11-21T16:37:38.376Z,3.50
2022-11-21T16:40:07.532Z,3.50
2022-11-21T16:42:35.417Z,3.40
2022-11-21T16:45:03.284Z,3.30
2022-11-21T16:47:31.185Z,3.30
2022-11-21T16:49:59.076Z,3.30
2022-11-21T16:52:26.964Z,3.20
2022-11-21T16:54:56.244Z,3.10
2022-11-21T16:57:24.098Z,3.10
2022-11-21T16:59:52.005Z,2.90
2022-11-21T17:02:19.978Z,2.80
2022-11-21T17:04:47.875Z,2.80
2022-11-21T17:07:15.809Z,2.70
2022-11-21T17:09:43.720Z,2.70
2022-11-21T17:12:13.360Z,2.70
2022-11-21T17:14:41.393Z,2.60
2022-11-21T17:17:09.315Z,2.60
2022-11-21T17:19:37.201Z,2.50
2022-11-21T17:22:05.104Z,2.40
2022-11-21T17:24:33.041Z,2.30
2022-11-21T17:27:02.615Z,2.20
2022-11-21T17:29:31.884Z,2.20
2022-11-21T17:31:59.776Z,2.10
2022-11-21T17:34:32.675Z,2.00
2022-11-21T17:37:03.010Z,1.90
2022-11-21T17:39:31.708Z,1.90
2022-11-21T17:42:01.421Z,1.90
2022-11-21T17:44:31.321Z,2.00
2022-11-21T17:47:01.889Z,2.00
2022-11-21T17:49:36.941Z,2.00
2022-11-21T17:52:06.814Z,2.00
2022-11-21T17:54:34.923Z,2.10
2022-11-21T17:57:03.075Z,1.90
2022-11-21T17:59:33.491Z,1.90
2022-11-21T18:02:02.035Z,1.80
2022-11-21T18:04:30.268Z,1.70
2022-11-21T18:06:58.638Z,1.70
2022-11-21T18:09:26.844Z,1.60
2022-11-21T18:11:54.857Z,1.50
2022-11-21T18:14:22.882Z,1.50
2022-11-21T18:16:53.659Z,1.40
2022-11-21T18:19:22.390Z,1.40
2022-11-21T18:21:51.767Z,1.40
2022-11-21T18:24:19.650Z,1.40
2022-11-21T18:26:47.833Z,1.40
2022-11-21T18:32:05.985Z,1.40
2022-11-21T18:34:34.744Z,1.30
2022-11-21T18:37:02.897Z,1.30
2022-11-21T18:39:31.955Z,1.30
2022-11-21T18:42:00.058Z,1.20
2022-11-21T18:44:27.951Z,1.20
2022-11-21T18:46:55.917Z,1.20
2022-11-21T18:49:25.730Z,1.20
2022-11-21T18:51:53.633Z,1.20
2022-11-21T18:54:21.551Z,1.20
2022-11-21T18:56:49.489Z,1.20
2022-11-21T18:59:17.413Z,1.20
2022-11-21T19:01:45.480Z,1.20
2022-11-21T19:04:13.510Z,1.20
2022-11-21T19:06:42.757Z,1.20
2022-11-21T19:09:11.628Z,1.20
2022-11-21T19:11:39.564Z,1.20
2022-11-21T19:14:07.519Z,1.20
2022-11-21T19:16:35.414Z,1.10
2022-11-21T19:21:56.236Z,1.10
2022-11-21T19:24:24.165Z,1.10
2022-11-21T19:26:52.034Z,1.00
2022-11-21T19:29:19.928Z,1.00
2022-11-21T19:31:48.003Z,1.00
2022-11-21T19:34:16.847Z,1.00
2022-11-21T19:36:45.665Z,1.00
2022-11-21T19:39:17.126Z,1.00
2022-11-21T19:41:45.021Z,1.10
2022-11-21T19:44:13.296Z,1.10
2022-11-21T19:46:41.416Z,1.10
2022-11-21T19:49:11.815Z,1.20
2022-11-21T19:51:42.195Z,1.30
2022-11-21T19:54:12.545Z,1.30
2022-11-21T19:56:41.937Z,1.30
2022-11-21T19:59:13.179Z,1.40
2022-11-21T20:01:41.464Z,1.30
2022-11-21T20:04:09.643Z,1.20
2022-11-21T20:06:39.037Z,1.20
2022-11-21T20:09:08.887Z,1.20
2022-11-21T20:11:37.310Z,1.20
2022-11-21T20:14:06.816Z,1.20
2022-11-21T20:16:36.523Z,1.30
2022-11-21T20:19:07.528Z,1.20
2022-11-21T20:21:35.550Z,1.20
2022-11-21T20:24:03.650Z,1.20
2022-11-21T20:26:31.925Z,1.20
2022-11-21T20:28:59.885Z,1.20
2022-11-21T20:31:30.883Z,1.20
2022-11-21T20:34:01.014Z,1.30
2022-11-21T20:36:30.904Z,1.30
2022-11-21T20:39:00.374Z,1.30
2022-11-21T20:41:31.330Z,1.40
2022-11-21T20:46:50.665Z,1.40
2022-11-21T20:49:18.953Z,1.40
2022-11-21T20:54:35.700Z,1.50
2022-11-21T20:57:03.603Z,1.50
2022-11-21T20:59:31.851Z,1.60
2022-11-21T21:02:01.561Z,1.60
2022-11-21T21:04:29.534Z,1.60
2022-11-21T21:06:57.557Z,1.60
2022-11-21T21:09:25.433Z,1.60
2022-11-21T21:11:53.778Z,1.70
2022-11-21T21:14:22.224Z,1.80
2022-11-21T21:16:50.746Z,1.80
2022-11-21T21:19:22.504Z,1.80
2022-11-21T21:21:50.643Z,1.80
2022-11-21T21:24:18.668Z,1.80
2022-11-21T21:26:48.169Z,1.80
2022-11-21T21:29:18.629Z,1.70
2022-11-21T21:31:51.748Z,1.70
2022-11-21T21:34:22.811Z,1.80
2022-11-21T21:36:51.416Z,1.80
2022-11-21T21:39:19.485Z,1.80
2022-11-21T21:41:48.061Z,1.80
2022-11-21T21:44:16.695Z,1.70
2022-11-21T21:46:45.329Z,1.80
2022-11-21T21:49:13.372Z,1.80
2022-11-21T21:51:42.637Z,1.80
2022-11-21T21:54:17.408Z,1.80
2022-11-21T21:56:46.761Z,1.80
2022-11-21T21:59:15.404Z,1.80
2022-11-21T22:01:43.820Z,1.80
2022-11-21T22:04:12.475Z,1.90
2022-11-21T22:06:41.809Z,1.90
2022-11-21T22:09:09.854Z,1.90
2022-11-21T22:11:39.266Z,1.80
2022-11-21T22:14:11.175Z,1.80
2022-11-21T22:16:39.145Z,1.70
2022-11-21T22:19:07.159Z,1.80
2022-11-21T22:21:36.307Z,1.80
2022-11-21T22:24:27.440Z,1.70
2022-11-21T22:26:55.756Z,1.70
2022-11-21T22:29:23.841Z,1.70
2022-11-21T22:31:51.931Z,1.80
2022-11-21T22:34:19.940Z,1.80
2022-11-21T22:36:47.956Z,1.80
2022-11-21T22:39:17.947Z,1.80
2022-11-21T22:41:46.105Z,1.80
2022-11-21T22:44:14.134Z,1.80
2022-11-21T22:46:42.183Z,1.80
2022-11-21T22:49:10.097Z,1.80
2022-11-21T22:51:37.969Z,1.80
2022-11-21T22:54:06.043Z,1.80
2022-11-21T22:56:35.417Z,1.70
2022-11-21T22:59:03.293Z,1.70
2022-11-21T23:01:33.044Z,1.80
2022-11-21T23:04:01.434Z,1.80
2022-11-21T23:06:29.331Z,1.90
2022-11-21T23:08:58.196Z,1.90
2022-11-21T23:11:28.213Z,1.90
2022-11-21T23:13:58.206Z,1.90
2022-11-21T23:16:26.806Z,1.90
2022-11-21T23:18:56.577Z,1.90
2022-11-21T23:21:24.707Z,1.90
2022-11-21T23:23:52.577Z,1.90
2022-11-21T23:26:20.529Z,2.00
2022-11-21T23:28:48.521Z,2.00
2022-11-21T23:31:17.784Z,2.00
2022-11-21T23:33:45.716Z,2.00
2022-11-21T23:36:13.636Z,2.00
2022-11-21T23:38:41.713Z,2.00
2022-11-21T23:41:09.653Z,2.00
2022-11-21T23:43:37.703Z,1.90
2022-11-21T23:46:05.817Z,1.90
2022-11-21T23:48:35.025Z,2.00
2022-11-21T23:51:02.891Z,2.00
2022-11-21T23:53:30.817Z,2.00
2022-11-21T23:55:58.741Z,2.00
2022-11-21T23:58:26.609Z,2.00
